Time;durP1;ratioP1;P1;durP2;ratioP2;P2;SDS_P1;SDS_P2;PMS_P1;PMS_P2;Temp;Humidity;BMP_temperature;BMP_pressure;BME280_temperature;BME280_humidity;BME280_pressure;Samples;Min_cycle;Max_cycle;Signal;HPM_P1;HPM_P2
2022/04/20 00:01:26;;;;;;;0.00;0.00;;;9.80;99.90;;;;;;5115350;28;20393;-72
2022/04/20 00:03:52;;;;;;;0.00;0.00;;;9.80;99.90;;;;;;5116280;28;20055;-72
2022/04/20 00:06:17;;;;;;;0.00;0.00;;;9.70;99.90;;;;;;5110786;28;20036;-71
2022/04/20 00:08:43;;;;;;;0.00;0.00;;;9.70;99.90;;;;;;5113987;28;20444;-70
2022/04/20 00:11:09;;;;;;;0.00;0.00;;;9.60;99.90;;;;;;5094602;28;20846;-70
2022/04/20 00:13:38;;;;;;;0.00;0.00;;;9.70;99.90;;;;;;5114225;28;20063;-69
2022/04/20 00:16:04;;;;;;;0.00;0.00;;;9.60;99.90;;;;;;5114448;28;20024;-70
2022/04/20 00:18:29;;;;;;;;;;;9.60;99.90;;;;;;5105347;28;20039;-69
2022/04/20 00:20:55;;;;;;;0.00;0.00;;;9.60;99.90;;;;;;5116989;28;19908;-72
2022/04/20 00:23:21;;;;;;;0.00;0.00;;;9.50;99.90;;;;;;5108309;28;20124;-70
2022/04/20 00:25:47;;;;;;;0.00;0.00;;;9.50;99.90;;;;;;5112789;28;20020;-71
2022/04/20 00:28:12;;;;;;;0.00;0.00;;;9.50;99.90;;;;;;5110616;28;20028;-71
2022/04/20 00:30:38;;;;;;;0.00;0.00;;;9.30;99.90;;;;;;5109310;28;20024;-71
2022/04/20 00:33:04;;;;;;;0.00;0.00;;;9.20;99.90;;;;;;5108360;28;20019;-71
2022/04/20 00:35:29;;;;;;;0.00;0.00;;;9.20;99.90;;;;;;5106351;28;20027;-71
2022/04/20 00:37:55;;;;;;;0.00;0.00;;;9.10;99.90;;;;;;5106730;28;20024;-70
2022/04/20 00:40:21;;;;;;;0.00;0.00;;;9.10;99.90;;;;;;5110763;28;20027;-71
2022/04/20 00:42:48;;;;;;;0.00;0.00;;;8.90;99.90;;;;;;5115780;28;20045;-71
2022/04/20 00:45:14;;;;;;;0.00;0.00;;;8.80;99.90;;;;;;5112510;28;20031;-71
2022/04/20 00:47:42;;;;;;;0.00;0.00;;;8.70;99.90;;;;;;5111863;28;20038;-71
2022/04/20 00:50:10;;;;;;;0.00;0.00;;;8.60;99.90;;;;;;5113089;28;20023;-70
2022/04/20 00:52:36;;;;;;;0.00;0.00;;;8.60;99.90;;;;;;5108731;28;20053;-71
2022/04/20 00:55:02;;;;;;;0.00;0.00;;;8.70;99.90;;;;;;5115913;28;20019;-71
2022/04/20 00:57:27;;;;;;;;;;;8.80;99.90;;;;;;5110758;28;20052;-70
2022/04/20 00:59:57;;;;;;;0.00;0.00;;;8.80;99.90;;;;;;5111221;28;19998;-70
2022/04/20 01:02:23;;;;;;;0.00;0.00;;;8.80;99.90;;;;;;5116342;28;20024;-70
2022/04/20 01:04:49;;;;;;;0.00;0.00;;;8.80;99.90;;;;;;5112791;28;20024;-71
2022/04/20 01:07:15;;;;;;;;;;;9.00;99.90;;;;;;5116076;28;20035;-70
2022/04/20 01:09:42;;;;;;;0.00;0.00;;;9.10;99.90;;;;;;5115086;28;19915;-69
2022/04/20 01:12:09;;;;;;;0.00;0.00;;;9.20;99.90;;;;;;5113827;28;20042;-70
2022/04/20 01:14:35;;;;;;;0.00;0.00;;;9.30;99.90;;;;;;5111288;28;20028;-70
2022/04/20 01:17:02;;;;;;;0.00;0.00;;;9.40;99.90;;;;;;5109228;28;20101;-70
2022/04/20 01:19:35;;;;;;;0.00;0.00;;;9.40;99.90;;;;;;5115073;28;20037;-70
2022/04/20 01:22:02;;;;;;;0.00;0.00;;;9.50;99.90;;;;;;5112379;28;20061;-70
2022/04/20 01:24:28;;;;;;;0.00;0.00;;;9.50;99.90;;;;;;5110941;28;20015;-71
2022/04/20 01:26:56;;;;;;;0.00;0.00;;;9.50;99.90;;;;;;5116166;28;20028;-70
2022/04/20 01:29:22;;;;;;;0.00;0.00;;;9.40;99.90;;;;;;5114304;28;20028;-71
2022/04/20 01:31:47;;;;;;;;;;;9.50;99.90;;;;;;5119168;28;20024;-71
2022/04/20 01:34:13;;;;;;;0.00;0.00;;;9.60;99.90;;;;;;5117476;28;20007;-71
2022/04/20 01:36:39;;;;;;;0.00;0.00;;;9.70;99.90;;;;;;5131140;28;20034;-71
2022/04/20 01:39:04;;;;;;;0.00;0.00;;;9.70;99.90;;;;;;5120726;28;20020;-70
2022/04/20 01:41:30;;;;;;;0.00;0.00;;;9.80;99.90;;;;;;5121887;28;20024;-71
2022/04/20 01:43:56;;;;;;;0.00;0.00;;;9.90;99.90;;;;;;5120962;28;20024;-72
2022/04/20 01:46:22;;;;;;;0.00;0.00;;;9.90;99.90;;;;;;5121277;28;20029;-71
2022/04/20 01:48:48;;;;;;;0.00;0.00;;;9.90;99.90;;;;;;5115120;28;20036;-70
2022/04/20 01:53:58;;;;;;;0.00;0.00;;;10.00;99.90;;;;;;5113066;28;20042;-70
2022/04/20 01:56:23;;;;;;;0.00;0.00;;;9.90;99.90;;;;;;5121117;28;20027;-71
2022/04/20 01:58:49;;;;;;;0.00;0.00;;;9.80;99.90;;;;;;5113255;28;20031;-71
2022/04/20 02:03:59;;;;;;;0.00;0.00;;;9.80;99.90;;;;;;5113302;28;20076;-71
2022/04/20 02:06:24;;;;;;;0.00;0.00;;;9.80;99.90;;;;;;5103781;28;20094;-70
2022/04/20 02:08:50;;;;;;;0.00;0.00;;;9.80;99.90;;;;;;5103107;28;20062;-71
2022/04/20 02:11:16;;;;;;;0.00;0.00;;;9.80;99.90;;;;;;5105606;28;20066;-71
2022/04/20 02:13:41;;;;;;;0.00;0.00;;;9.80;99.90;;;;;;5102714;28;20027;-71
2022/04/20 02:16:07;;;;;;;0.00;0.00;;;9.70;99.90;;;;;;5104626;28;20586;-70
2022/04/20 02:18:33;;;;;;;0.00;0.00;;;9.70;99.90;;;;;;5101882;28;20023;-69
2022/04/20 02:20:58;;;;;;;0.00;0.00;;;9.70;99.90;;;;;;5099500;28;20485;-70
2022/04/20 02:23:26;;;;;;;0.00;0.00;;;9.70;99.90;;;;;;5102175;28;20028;-71
2022/04/20 02:25:52;;;;;;;0.00;0.00;;;9.70;99.90;;;;;;5101166;28;20562;-71
2022/04/20 02:28:18;;;;;;;0.00;0.00;;;9.80;99.90;;;;;;5105371;28;20059;-71
2022/04/20 02:30:44;;;;;;;0.00;0.00;;;9.90;99.90;;;;;;5102934;28;20059;-70
2022/04/20 02:33:10;;;;;;;0.00;0.00;;;9.90;99.90;;;;;;5099404;28;20070;-72
2022/04/20 02:35:36;;;;;;;0.00;0.00;;;9.70;99.90;;;;;;5106753;28;20083;-70
2022/04/20 02:38:03;;;;;;;0.00;0.00;;;9.70;99.90;;;;;;5101752;28;20031;-70
2022/04/20 02:40:30;;;;;;;0.00;0.00;;;9.70;99.90;;;;;;5106731;28;20106;-71
2022/04/20 02:42:56;;;;;;;0.00;0.00;;;9.50;99.90;;;;;;5101233;28;20037;-70
2022/04/20 02:45:22;;;;;;;0.00;0.00;;;9.40;99.90;;;;;;5099560;28;20126;-70
2022/04/20 02:47:48;;;;;;;0.00;0.00;;;9.40;99.90;;;;;;5103843;28;20400;-70
2022/04/20 02:50:14;;;;;;;0.00;0.00;;;9.40;99.90;;;;;;5103536;28;20028;-71
2022/04/20 02:52:40;;;;;;;0.00;0.00;;;9.30;99.90;;;;;;5103486;28;20107;-71
2022/04/20 02:55:06;;;;;;;0.00;0.00;;;9.30;99.90;;;;;;5106298;28;20399;-71
2022/04/20 02:57:31;;;;;;;0.00;0.00;;;9.20;99.90;;;;;;5101145;28;20413;-71
2022/04/20 02:59:57;;;;;;;0.00;0.00;;;9.20;99.90;;;;;;5099080;28;20034;-70
2022/04/20 03:02:23;;;;;;;0.00;0.00;;;9.20;99.90;;;;;;5106763;28;20028;-71
2022/04/20 03:04:48;;;;;;;0.00;0.00;;;9.20;99.90;;;;;;5103043;28;20035;-71
2022/04/20 03:07:14;;;;;;;0.00;0.00;;;9.10;99.90;;;;;;5105800;28;20060;-70
2022/04/20 03:09:40;;;;;;;0.00;0.00;;;9.10;99.90;;;;;;5102725;28;20481;-70
2022/04/20 03:12:06;;;;;;;0.00;0.00;;;9.00;99.90;;;;;;5101305;28;20024;-70
2022/04/20 03:14:32;;;;;;;0.00;0.00;;;9.00;99.90;;;;;;5100535;28;20026;-71
2022/04/20 03:16:57;;;;;;;0.00;0.00;;;8.90;99.90;;;;;;5101386;28;20469;-71
2022/04/20 03:19:23;;;;;;;0.00;0.00;;;8.90;99.90;;;;;;5101478;28;20031;-69
2022/04/20 03:21:48;;;;;;;0.00;0.00;;;8.90;99.90;;;;;;5102754;28;20485;-71
2022/04/20 03:24:14;;;;;;;0.00;0.00;;;8.90;99.90;;;;;;5104949;28;20484;-70
2022/04/20 03:26:40;;;;;;;0.00;0.00;;;8.80;99.90;;;;;;5109950;28;20031;-71
2022/04/20 03:29:06;;;;;;;;;;;8.90;99.90;;;;;;5108707;28;20027;-70
2022/04/20 03:31:34;;;;;;;0.00;0.00;;;8.80;99.90;;;;;;5104137;28;19908;-71
2022/04/20 03:34:01;;;;;;;0.00;0.00;;;8.80;99.90;;;;;;5112470;28;20104;-72
2022/04/20 03:36:27;;;;;;;0.00;0.00;;;8.70;99.90;;;;;;5110517;28;20035;-71
2022/04/20 03:38:53;;;;;;;0.00;0.00;;;8.70;99.90;;;;;;5111598;28;20035;-71
2022/04/20 03:41:18;;;;;;;0.00;0.00;;;8.70;99.90;;;;;;5112481;28;20059;-70
2022/04/20 03:43:44;;;;;;;0.00;0.00;;;8.70;99.90;;;;;;5105790;28;20818;-71
2022/04/20 03:46:11;;;;;;;;;;;8.60;99.90;;;;;;5110176;28;20023;-71
2022/04/20 03:48:36;;;;;;;0.00;0.00;;;8.60;99.90;;;;;;5112144;28;20361;-70
2022/04/20 03:51:02;;;;;;;0.00;0.00;;;8.60;99.90;;;;;;5106913;28;20031;-71
2022/04/20 03:53:28;;;;;;;0.00;0.00;;;8.60;99.90;;;;;;5109116;28;20030;-70
2022/04/20 03:55:57;;;;;;;0.00;0.00;;;8.60;99.90;;;;;;5106273;28;20027;-71
2022/04/20 03:58:22;;;;;;;0.00;0.00;;;8.60;99.90;;;;;;5107875;28;20028;-72
2022/04/20 04:00:49;;;;;;;0.00;0.00;;;8.50;99.90;;;;;;5109079;28;20039;-71
2022/04/20 04:03:15;;;;;;;0.00;0.00;;;8.50;99.90;;;;;;5107149;28;20034;-71
2022/04/20 04:05:41;;;;;;;0.00;0.00;;;8.50;99.90;;;;;;5105226;28;20397;-71
2022/04/20 04:08:06;;;;;;;0.00;0.00;;;8.50;99.90;;;;;;5112605;28;20051;-70
2022/04/20 04:10:32;;;;;;;0.00;0.00;;;8.40;99.90;;;;;;5111854;28;20028;-71
2022/04/20 04:12:58;;;;;;;0.00;0.00;;;8.40;99.90;;;;;;5107800;28;20469;-70
2022/04/20 04:15:23;;;;;;;0.00;0.00;;;8.40;99.90;;;;;;5105484;28;20041;-70
2022/04/20 04:17:54;;;;;;;0.00;0.00;;;8.30;99.90;;;;;;5109404;28;20051;-71
2022/04/20 04:20:21;;;;;;;0.00;0.00;;;8.20;99.90;;;;;;5110885;28;20024;-72
2022/04/20 04:22:47;;;;;;;0.00;0.00;;;8.20;99.90;;;;;;5111570;28;20052;-70
2022/04/20 04:25:13;;;;;;;0.00;0.00;;;8.30;99.90;;;;;;5106703;28;20023;-71
2022/04/20 04:27:39;;;;;;;0.00;0.00;;;8.20;99.90;;;;;;5108265;28;20035;-70
2022/04/20 04:30:05;;;;;;;0.00;0.00;;;8.10;99.90;;;;;;5105997;28;20035;-71
2022/04/20 04:32:31;;;;;;;0.00;0.00;;;8.10;99.90;;;;;;5108604;28;20050;-71
2022/04/20 04:34:57;;;;;;;0.00;0.00;;;8.10;99.90;;;;;;5112536;28;20024;-70
2022/04/20 04:37:23;;;;;;;0.00;0.00;;;8.00;99.90;;;;;;5110774;28;20032;-72
2022/04/20 04:39:49;;;;;;;0.00;0.00;;;8.00;99.90;;;;;;5108908;28;20031;-71
2022/04/20 04:42:14;;;;;;;0.00;0.00;;;8.00;99.90;;;;;;5115297;28;20027;-71
2022/04/20 04:44:40;;;;;;;0.00;0.00;;;7.90;99.90;;;;;;5113737;28;20019;-70
2022/04/20 04:49:50;;;;;;;0.00;0.00;;;7.90;99.90;;;;;;5113177;28;20031;-70
2022/04/20 04:52:16;;;;;;;0.00;0.00;;;7.80;99.90;;;;;;5113618;28;20431;-71
2022/04/20 04:54:42;;;;;;;0.00;0.00;;;7.80;99.90;;;;;;5112044;28;20043;-70
2022/04/20 04:57:08;;;;;;;0.00;0.00;;;7.80;99.90;;;;;;5115700;28;20045;-70
2022/04/20 04:59:36;;;;;;;0.00;0.00;;;7.80;99.90;;;;;;5114500;28;20042;-70
2022/04/20 05:02:02;;;;;;;0.00;0.00;;;7.80;99.90;;;;;;5115226;28;20020;-70
2022/04/20 05:04:28;;;;;;;0.00;0.00;;;7.80;99.90;;;;;;5114795;28;20023;-70
2022/04/20 05:06:53;;;;;;;0.00;0.00;;;7.80;99.90;;;;;;5111541;28;20060;-71
2022/04/20 05:09:19;;;;;;;0.00;0.00;;;7.80;99.90;;;;;;5113883;28;20054;-71
2022/04/20 05:11:44;;;;;;;0.00;0.00;;;7.80;99.90;;;;;;5110241;28;20026;-71
2022/04/20 05:14:13;;;;;;;0.00;0.00;;;7.80;99.90;;;;;;5109846;28;20028;-70
2022/04/20 05:16:40;;;;;;;0.00;0.00;;;7.90;99.90;;;;;;5110629;28;20526;-70
2022/04/20 05:19:05;;;;;;;0.00;0.00;;;7.80;99.90;;;;;;5117712;28;20039;-70
2022/04/20 05:21:31;;;;;;;0.00;0.00;;;7.80;99.90;;;;;;5115920;28;20085;-71
2022/04/20 05:23:58;;;;;;;0.00;0.00;;;7.80;99.90;;;;;;5113551;28;20110;-71
2022/04/20 05:26:25;;;;;;;0.00;0.00;;;7.70;99.90;;;;;;5113737;28;20042;-71
2022/04/20 05:28:52;;;;;;;0.00;0.00;;;7.70;99.90;;;;;;5110015;28;20026;-71
2022/04/20 05:31:18;;;;;;;0.00;0.00;;;7.60;99.90;;;;;;5115993;28;20042;-70
2022/04/20 05:33:44;;;;;;;0.00;0.00;;;7.60;99.90;;;;;;5115657;28;20421;-70
2022/04/20 05:36:10;;;;;;;0.00;0.00;;;7.70;99.90;;;;;;5107987;28;20054;-70
2022/04/20 05:41:53;;;;;;;0.00;0.00;;;7.60;99.90;;;;;;5103660;28;19981;-70
2022/04/20 05:44:12;;;;;;;0.00;0.00;;;7.60;99.90;;;;;;5100973;28;20031;-71
2022/04/20 05:46:39;;;;;;;0.00;0.00;;;7.60;99.90;;;;;;5108677;28;20024;-70
2022/04/20 05:49:05;;;;;;;0.00;0.00;;;7.50;99.90;;;;;;5110560;28;20040;-71
2022/04/20 05:51:32;;;;;;;0.00;0.00;;;7.60;99.90;;;;;;5109608;28;20018;-71
2022/04/20 05:53:57;;;;;;;0.00;0.00;;;7.50;99.90;;;;;;5113094;28;20118;-71
2022/04/20 05:56:23;;;;;;;0.00;0.00;;;7.50;99.90;;;;;;5112705;28;20042;-70
2022/04/20 05:58:52;;;;;;;0.00;0.00;;;7.60;99.90;;;;;;5106862;28;20074;-72
2022/04/20 06:01:19;;;;;;;0.00;0.00;;;7.60;99.90;;;;;;5105212;28;20043;-70
2022/04/20 06:03:46;;;;;;;0.00;0.00;;;7.60;99.90;;;;;;5107971;28;20050;-71
2022/04/20 06:06:13;;;;;;;0.00;0.00;;;7.60;99.90;;;;;;5091343;28;20055;-71
2022/04/20 06:08:39;;;;;;;0.00;0.00;;;7.60;99.90;;;;;;5093626;28;20131;-72
2022/04/20 06:11:05;;;;;;;0.00;0.00;;;7.70;99.90;;;;;;5093978;28;20028;-71
2022/04/20 06:13:32;;;;;;;0.00;0.00;;;7.70;99.90;;;;;;5109911;28;20032;-71
2022/04/20 06:15:58;;;;;;;0.00;0.00;;;7.70;99.90;;;;;;5115361;27;20044;-70
2022/04/20 06:18:24;;;;;;;0.00;0.00;;;7.70;99.90;;;;;;5109904;28;20393;-71
2022/04/20 06:20:49;;;;;;;0.00;0.00;;;7.80;99.90;;;;;;5110505;28;20031;-71
2022/04/20 06:23:15;;;;;;;0.00;0.00;;;7.80;99.90;;;;;;5113972;28;20031;-70
2022/04/20 06:25:42;;;;;;;0.00;0.00;;;7.90;99.90;;;;;;5107152;28;20396;-71
2022/04/20 06:28:11;;;;;;;0.00;0.00;;;7.90;99.90;;;;;;5106419;28;20114;-71
2022/04/20 06:30:36;;;;;;;0.00;0.00;;;7.90;99.90;;;;;;5109660;28;20115;-71
2022/04/20 06:33:02;;;;;;;0.00;0.00;;;8.00;99.90;;;;;;5111221;28;20069;-71
2022/04/20 06:35:28;;;;;;;0.00;0.00;;;8.10;99.90;;;;;;5104307;28;20054;-71
2022/04/20 06:37:53;;;;;;;0.00;0.00;;;8.10;99.90;;;;;;5111339;28;20028;-72
2022/04/20 06:40:19;;;;;;;0.00;0.00;;;8.10;99.90;;;;;;5102040;28;20032;-72
2022/04/20 06:42:45;;;;;;;0.00;0.00;;;8.30;99.90;;;;;;5107761;28;20114;-72
2022/04/20 06:45:14;;;;;;;0.00;0.00;;;8.30;99.90;;;;;;5089087;28;20036;-72
2022/04/20 06:47:39;;;;;;;0.00;0.00;;;8.40;99.90;;;;;;5112073;28;20030;-71
2022/04/20 06:50:07;;;;;;;0.00;0.00;;;8.30;99.90;;;;;;5115293;28;20036;-71
2022/04/20 07:00:45;;;;;;;0.00;0.00;;;8.30;99.90;;;;;;5110787;28;20049;-72
2022/04/20 07:03:10;;;;;;;0.00;0.00;;;8.40;99.90;;;;;;5111239;28;20758;-72
2022/04/20 07:05:36;;;;;;;0.00;0.00;;;8.50;99.90;;;;;;5106568;28;20036;-71
2022/04/20 07:08:02;;;;;;;0.00;0.00;;;8.50;99.90;;;;;;5112681;28;20055;-72
2022/04/20 07:10:31;;;;;;;0.00;0.00;;;8.50;99.90;;;;;;5115964;28;20031;-72
2022/04/20 07:12:56;;;;;;;0.00;0.00;;;8.50;99.90;;;;;;5108131;28;20050;-71
2022/04/20 07:15:22;;;;;;;0.00;0.00;;;8.60;99.90;;;;;;5104235;28;20477;-70
2022/04/20 07:17:48;;;;;;;0.00;0.00;;;8.80;99.90;;;;;;5115649;28;20372;-71
2022/04/20 07:20:17;;;;;;;0.00;0.00;;;8.80;99.90;;;;;;5119699;28;20027;-71
2022/04/20 07:22:54;;;;;;;0.00;0.00;;;8.70;99.90;;;;;;5111874;28;20630;-73
2022/04/20 07:25:20;;;;;;;0.00;0.00;;;8.60;99.90;;;;;;5126673;28;20099;-74
2022/04/20 07:27:47;;;;;;;0.00;0.00;;;8.50;99.90;;;;;;5118505;28;20051;-72
2022/04/20 07:30:13;;;;;;;0.00;0.00;;;8.50;99.90;;;;;;5114640;28;20544;-72
2022/04/20 07:32:38;;;;;;;;;;;8.50;99.90;;;;;;5115131;28;20028;-71
2022/04/20 07:35:04;;;;;;;0.00;0.00;;;8.50;99.90;;;;;;5113282;28;20392;-71
2022/04/20 07:37:31;;;;;;;0.00;0.00;;;8.50;99.90;;;;;;5110678;28;20072;-71
2022/04/20 07:39:57;;;;;;;0.00;0.00;;;8.60;99.90;;;;;;5118367;28;20036;-73
2022/04/20 07:42:24;;;;;;;0.00;0.00;;;8.70;99.90;;;;;;5135360;28;20116;-72
2022/04/20 07:44:50;;;;;;;0.00;0.00;;;8.70;99.90;;;;;;5133871;28;20044;-72
2022/04/20 07:47:16;;;;;;;0.00;0.00;;;8.70;99.90;;;;;;5135219;28;20046;-73
2022/04/20 07:52:26;;;;;;;0.00;0.00;;;8.90;99.90;;;;;;5115741;28;20055;-74
2022/04/20 07:54:52;;;;;;;0.00;0.00;;;9.00;99.90;;;;;;5130279;28;20015;-74
2022/04/20 07:57:17;;;;;;;0.00;0.00;;;9.10;99.90;;;;;;5125343;28;20032;-74
2022/04/20 07:59:46;;;;;;;0.00;0.00;;;9.10;99.90;;;;;;5115235;28;20064;-73
2022/04/20 08:02:12;;;;;;;0.00;0.00;;;9.20;99.90;;;;;;5125226;28;20046;-74
2022/04/20 08:04:38;;;;;;;0.00;0.00;;;9.20;99.90;;;;;;5128494;28;20016;-74
2022/04/20 08:07:04;;;;;;;0.00;0.00;;;9.20;99.90;;;;;;5125403;28;20066;-75
2022/04/20 08:09:29;;;;;;;0.00;0.00;;;9.30;99.90;;;;;;5121756;28;20083;-72
2022/04/20 08:11:55;;;;;;;0.00;0.00;;;9.40;99.90;;;;;;5127221;27;20443;-72
2022/04/20 08:14:21;;;;;;;0.00;0.00;;;9.50;99.90;;;;;;5103292;28;20461;-73
2022/04/20 08:16:47;;;;;;;0.00;0.00;;;9.50;99.90;;;;;;5110318;28;20031;-72
2022/04/20 08:19:13;;;;;;;0.00;0.00;;;9.50;99.90;;;;;;5119075;28;20028;-73
2022/04/20 08:21:39;;;;;;;0.00;0.00;;;9.60;99.90;;;;;;5130633;28;20084;-74
2022/04/20 08:24:06;;;;;;;0.00;0.00;;;9.60;99.90;;;;;;5120566;28;20027;-72
2022/04/20 08:26:32;;;;;;;0.00;0.00;;;9.80;99.90;;;;;;5133432;28;20019;-74
2022/04/20 08:28:57;;;;;;;0.00;0.00;;;10.10;99.90;;;;;;5130632;28;20035;-73
2022/04/20 08:31:24;;;;;;;0.00;0.00;;;10.20;99.90;;;;;;5133970;28;20028;-73
2022/04/20 08:33:50;;;;;;;0.00;0.00;;;10.30;99.90;;;;;;5124481;28;20058;-76
2022/04/20 08:36:16;;;;;;;0.00;0.00;;;10.50;99.90;;;;;;5129544;28;20035;-76
2022/04/20 08:38:44;;;;;;;0.00;0.00;;;10.60;99.90;;;;;;5129251;28;20027;-72
2022/04/20 08:41:12;;;;;;;0.00;0.00;;;10.70;99.90;;;;;;5130093;27;20020;-74
2022/04/20 08:43:41;;;;;;;0.00;0.00;;;10.70;99.90;;;;;;5141726;27;20008;-75
2022/04/20 08:46:12;;;;;;;0.00;0.00;;;10.80;99.90;;;;;;5119720;28;20035;-72
2022/04/20 08:48:38;;;;;;;0.00;0.00;;;10.70;99.90;;;;;;5114298;28;20486;-72
2022/04/20 08:51:05;;;;;;;0.00;0.00;;;10.60;99.90;;;;;;5106100;28;20122;-71
2022/04/20 08:53:31;;;;;;;0.00;0.00;;;10.50;99.90;;;;;;5119936;28;20051;-71
2022/04/20 08:58:46;;;;;;;0.00;0.00;;;10.70;99.90;;;;;;5109229;28;20042;-72
2022/04/20 09:01:14;;;;;;;0.00;0.00;;;10.80;99.90;;;;;;5125152;27;20110;-74
2022/04/20 09:03:40;;;;;;;0.00;0.00;;;10.90;99.90;;;;;;5121949;27;20065;-73
2022/04/20 09:06:09;;;;;;;0.00;0.00;;;11.00;99.90;;;;;;5102501;28;20057;-74
2022/04/20 09:08:38;;;;;;;0.00;0.00;;;11.20;99.90;;;;;;5110489;28;20060;-74
2022/04/20 09:11:04;;;;;;;0.00;0.00;;;11.20;99.90;;;;;;5109926;28;20161;-74
2022/04/20 09:13:41;;;;;;;0.00;0.00;;;11.20;99.90;;;;;;5101667;28;20082;-75
2022/04/20 09:16:09;;;;;;;0.00;0.00;;;11.20;99.90;;;;;;5113174;28;20015;-73
2022/04/20 09:18:36;;;;;;;0.00;0.00;;;11.30;99.90;;;;;;5102236;27;20031;-73
2022/04/20 09:21:06;;;;;;;0.00;0.00;;;11.50;99.90;;;;;;5110236;28;20028;-73
2022/04/20 09:23:32;;;;;;;0.00;0.00;;;11.50;99.90;;;;;;5108880;28;20178;-72
2022/04/20 09:26:10;;;;;;;0.00;0.00;;;11.70;99.90;;;;;;5120743;27;20107;-73
2022/04/20 09:28:39;;;;;;;0.00;0.00;;;11.70;99.90;;;;;;5111160;28;20037;-74
2022/04/20 09:31:07;;;;;;;0.00;0.00;;;11.90;99.90;;;;;;5111457;28;20027;-73
2022/04/20 09:33:50;;;;;;;0.00;0.00;;;12.00;99.90;;;;;;5110359;28;20028;-73
2022/04/20 09:36:45;;;;;;;0.00;0.00;;;12.00;99.90;;;;;;5106714;28;20430;-76
2022/04/20 09:39:13;;;;;;;0.00;0.00;;;11.90;99.90;;;;;;5113608;28;20032;-74
2022/04/20 09:41:58;;;;;;;0.00;0.00;;;12.00;99.90;;;;;;5097546;28;20110;-74
2022/04/20 09:44:25;;;;;;;0.00;0.00;;;12.00;99.90;;;;;;5103252;28;20132;-75
2022/04/20 09:50:02;;;;;;;0.00;0.00;;;12.20;99.90;;;;;;5111746;28;20198;-74
2022/04/20 09:52:43;;;;;;;0.00;0.00;;;12.30;99.90;;;;;;5120621;27;20019;-73
2022/04/20 09:55:26;;;;;;;0.00;0.00;;;12.30;99.90;;;;;;5114249;28;20087;-73
2022/04/20 09:57:53;;;;;;;0.00;0.00;;;12.50;99.90;;;;;;5101868;28;20044;-74
2022/04/20 10:00:20;;;;;;;0.00;0.00;;;12.60;99.90;;;;;;5100553;28;20085;-74
2022/04/20 10:03:04;;;;;;;0.00;0.00;;;12.70;99.90;;;;;;5108950;28;20039;-75
2022/04/20 10:05:30;;;;;;;0.00;0.00;;;12.80;99.90;;;;;;5100549;28;20093;-74
2022/04/20 10:07:59;;;;;;;0.00;0.00;;;12.90;99.90;;;;;;5097536;28;20048;-74
2022/04/20 10:10:29;;;;;;;0.00;0.00;;;13.00;99.90;;;;;;5094300;28;20414;-76
2022/04/20 10:12:56;;;;;;;0.00;0.00;;;13.10;99.90;;;;;;5109793;28;20023;-74
2022/04/20 10:18:13;;;;;;;0.00;0.00;;;13.40;99.90;;;;;;5103096;28;20054;-75
2022/04/20 10:20:43;;;;;;;0.00;0.00;;;13.60;99.90;;;;;;5107304;28;20023;-73
2022/04/20 10:23:10;;;;;;;0.00;0.00;;;13.60;99.90;;;;;;5107465;28;20070;-72
2022/04/20 10:25:39;;;;;;;0.00;0.00;;;13.80;99.90;;;;;;5103211;28;20122;-72
2022/04/20 10:28:21;;;;;;;0.00;0.00;;;14.00;99.90;;;;;;5109438;28;20024;-72
2022/04/20 10:31:29;;;;;;;0.00;0.00;;;14.10;99.90;;;;;;5103967;28;20103;-73
2022/04/20 10:34:02;;;;;;;0.00;0.00;;;14.20;99.90;;;;;;5110898;28;20036;-74
2022/04/20 10:36:32;;;;;;;0.00;0.00;;;14.30;99.90;;;;;;5107511;28;20055;-74
2022/04/20 10:39:22;;;;;;;0.00;0.00;;;14.50;99.90;;;;;;5115637;28;20082;-74
2022/04/20 10:42:15;;;;;;;0.00;0.00;;;14.50;99.90;;;;;;5118545;28;20408;-76
2022/04/20 10:45:06;;;;;;;0.00;0.00;;;14.40;99.90;;;;;;5113621;28;20036;-73
2022/04/20 10:47:42;;;;;;;0.00;0.00;;;14.40;99.90;;;;;;5108013;28;20081;-74
2022/04/20 10:50:22;;;;;;;0.00;0.00;;;14.30;99.90;;;;;;5105719;28;20039;-73
2022/04/20 10:53:03;;;;;;;0.00;0.00;;;14.40;99.90;;;;;;5110118;28;20050;-75
2022/04/20 10:55:50;;;;;;;0.00;0.00;;;14.50;99.90;;;;;;5100971;28;20042;-72
2022/04/20 10:58:21;;;;;;;0.00;0.00;;;14.60;99.90;;;;;;5104595;28;20178;-73
2022/04/20 11:00:46;;;;;;;0.00;0.00;;;14.70;99.90;;;;;;5113425;28;20058;-76
2022/04/20 11:03:12;;;;;;;0.00;0.00;;;14.80;99.90;;;;;;5109060;28;20027;-76
2022/04/20 11:05:49;;;;;;;0.00;0.00;;;14.90;99.90;;;;;;5109614;28;20111;-75
2022/04/20 11:08:15;;;;;;;0.00;0.00;;;14.90;99.90;;;;;;5096632;28;20048;-76
2022/04/20 11:10:43;;;;;;;0.00;0.00;;;15.00;99.90;;;;;;5105755;28;20034;-75
2022/04/20 11:19:03;;;;;;;0.00;0.00;;;15.20;99.90;;;;;;5098576;28;20039;-75
2022/04/20 11:21:29;;;;;;;0.00;0.00;;;15.20;99.90;;;;;;5102611;28;20111;-75
2022/04/20 11:23:59;;;;;;;;;;;15.30;99.90;;;;;;5110738;28;20488;-75
2022/04/20 11:26:39;;;;;;;0.00;0.00;;;15.40;99.90;;;;;;5096762;28;19950;-75
2022/04/20 11:29:16;;;;;;;0.00;0.00;;;15.40;99.90;;;;;;5112477;28;20135;-75
2022/04/20 11:31:47;;;;;;;0.00;0.00;;;15.40;99.90;;;;;;5095382;28;20024;-75
2022/04/20 11:34:17;;;;;;;0.00;0.00;;;15.50;99.90;;;;;;5112928;28;20023;-74
2022/04/20 11:36:51;;;;;;;0.00;0.00;;;15.60;99.90;;;;;;5109274;28;20412;-75
2022/04/20 11:39:19;;;;;;;0.00;0.00;;;15.80;99.90;;;;;;5103710;28;20047;-72
2022/04/20 11:41:59;;;;;;;0.00;0.00;;;16.00;99.90;;;;;;5112173;28;20023;-71
2022/04/20 11:44:28;;;;;;;0.00;0.00;;;16.10;99.90;;;;;;5132749;28;20062;-74
2022/04/20 11:47:01;;;;;;;0.00;0.00;;;16.20;99.90;;;;;;5117950;28;20059;-73
2022/04/20 11:49:38;;;;;;;0.00;0.00;;;16.20;99.90;;;;;;5118687;28;20032;-73
2022/04/20 11:52:06;;;;;;;0.00;0.00;;;16.00;99.90;;;;;;5115904;27;20114;-76
2022/04/20 11:54:36;;;;;;;0.00;0.00;;;15.90;99.90;;;;;;5099486;28;20043;-75
2022/04/20 11:57:03;;;;;;;0.00;0.00;;;15.90;99.90;;;;;;5109280;28;20027;-75
2022/04/20 11:59:29;;;;;;;0.00;0.00;;;15.90;99.90;;;;;;5112486;28;20046;-75
2022/04/20 12:01:55;;;;;;;0.00;0.00;;;16.10;99.90;;;;;;5108997;28;20023;-72
2022/04/20 12:04:25;;;;;;;0.00;0.00;;;16.10;99.90;;;;;;5114004;28;20032;-72
2022/04/20 12:06:56;;;;;;;0.00;0.00;;;16.00;99.90;;;;;;5103761;28;20043;-73
2022/04/20 12:09:28;;;;;;;0.00;0.00;;;16.10;99.90;;;;;;5105330;28;20188;-73
2022/04/20 12:11:58;;;;;;;0.00;0.00;;;16.20;99.90;;;;;;5104543;28;20024;-72
2022/04/20 12:14:28;;;;;;;0.00;0.00;;;16.40;99.90;;;;;;5113996;28;20028;-72
2022/04/20 12:16:58;;;;;;;0.00;0.00;;;16.40;99.90;;;;;;5096406;28;20267;-72
2022/04/20 12:19:24;;;;;;;0.00;0.00;;;16.40;99.90;;;;;;5103134;28;20103;-71
2022/04/20 12:21:50;;;;;;;;;;;16.60;99.90;;;;;;5111059;28;20457;-73
2022/04/20 12:24:30;;;;;;;0.00;0.00;;;16.70;99.90;;;;;;5110172;27;19915;-73
2022/04/20 12:26:57;;;;;;;0.00;0.00;;;16.70;99.90;;;;;;5106002;28;20093;-73
2022/04/20 12:29:29;;;;;;;0.00;0.00;;;16.90;99.90;;;;;;5109897;28;20028;-74
2022/04/20 12:31:55;;;;;;;0.00;0.00;;;17.00;99.90;;;;;;5110200;28;20443;-74
2022/04/20 12:34:23;;;;;;;;;;;17.20;99.90;;;;;;5111245;28;20099;-73
2022/04/20 12:36:49;;;;;;;;;;;17.30;98.50;;;;;;5108985;28;19908;-75
2022/04/20 12:39:38;;;;;;;0.00;0.00;;;17.20;98.20;;;;;;5112203;28;19975;-75
2022/04/20 12:42:10;;;;;;;0.00;0.00;;;17.10;98.70;;;;;;5105149;28;20036;-73
2022/04/20 12:44:37;;;;;;;0.00;0.00;;;17.20;98.20;;;;;;5093177;28;20024;-75
2022/04/20 12:47:11;;;;;;;0.00;0.00;;;17.20;97.90;;;;;;5115717;28;20040;-73
2022/04/20 12:49:38;;;;;;;0.00;0.00;;;17.20;97.80;;;;;;5108816;28;20057;-74
2022/04/20 12:52:14;;;;;;;0.00;0.00;;;17.20;98.30;;;;;;5098992;28;20032;-72
2022/04/20 12:54:51;;;;;;;0.00;0.00;;;17.40;98.40;;;;;;5118646;28;20027;-72
2022/04/20 13:02:58;;;;;;;0.00;0.00;;;17.60;96.60;;;;;;5110750;28;20026;-74
2022/04/20 13:05:24;;;;;;;;;;;17.50;95.80;;;;;;5107348;28;20043;-73
2022/04/20 13:07:50;;;;;;;0.00;0.00;;;17.60;94.90;;;;;;5099790;28;20268;-73
2022/04/20 13:10:16;;;;;;;;;;;17.40;94.50;;;;;;5110515;28;20056;-72
2022/04/20 13:12:48;;;;;;;0.00;0.00;;;17.60;94.90;;;;;;5104808;28;19915;-72
2022/04/20 13:15:14;;;;;;;0.00;0.00;;;17.90;94.60;;;;;;5108652;28;20448;-73
2022/04/20 13:17:40;;;;;;;0.00;0.00;;;18.10;95.00;;;;;;5107053;28;20043;-72
2022/04/20 13:20:06;;;;;;;;;;;18.20;94.10;;;;;;5102686;28;20032;-71
2022/04/20 13:22:32;;;;;;;0.00;0.00;;;18.00;94.30;;;;;;5101804;27;19924;-73
2022/04/20 13:27:54;;;;;;;0.00;0.00;;;18.00;93.80;;;;;;5106809;28;20097;-73
2022/04/20 13:30:35;;;;;;;0.00;0.00;;;18.10;93.90;;;;;;5107870;28;20047;-73
2022/04/20 13:33:03;;;;;;;0.00;0.00;;;18.30;94.00;;;;;;5105905;28;20312;-73
2022/04/20 13:35:29;;;;;;;0.00;0.00;;;18.30;94.30;;;;;;5108494;28;20019;-74
2022/04/20 13:37:55;;;;;;;0.00;0.00;;;18.30;94.60;;;;;;5105094;28;20020;-74
2022/04/20 13:40:22;;;;;;;0.00;0.00;;;18.30;94.20;;;;;;5107580;28;20039;-75
2022/04/20 13:42:48;;;;;;;0.00;0.00;;;18.20;93.60;;;;;;5106915;28;20055;-73
2022/04/20 13:45:14;;;;;;;0.00;0.00;;;18.00;93.80;;;;;;5099383;28;20059;-73
2022/04/20 13:47:39;;;;;;;0.00;0.00;;;17.80;94.00;;;;;;5110956;27;20031;-72